Terminal Aerodrome Forecast
Issued by NWS

Home | Current Version | Previous Version | Text Only | Print | Product List | Glossary On
Versions: 1 2 3 4 5 6 7 8 9 10 11 12 13 14 15 16 17 18 19 20 21 22 23 24
000
FTUS43 KDLH 281723
TAFBRD
TAF
KBRD 281723Z 2818/2918 VRB03KT P6SM VCSH SCT008 OVC015
      TEMPO 2818/2822 4SM -RA BR OVC008
     FM290300 VRB02KT 2SM -DZ BR VCSH OVC003
     FM291000 29007KT P6SM BKN008 OVC018
     FM291500 30010KT P6SM BKN025=

USA.gov is the U.S. government's official web portal to all federal, state and local government web resources and services.